Time;durP1;ratioP1;P1;durP2;ratioP2;P2;SDS_P1;SDS_P2;PMS_P1;PMS_P2;Temp;Humidity;BMP_temperature;BMP_pressure;BME280_temperature;BME280_humidity;BME280_pressure;Samples;Min_cycle;Max_cycle;Signal;HPM_P1;HPM_P2
2023/10/29 00:00:43;;;;;;;5.47;3.22;;;17.70;90.60;;;;;;4880365;29;20059;-76
2023/10/29 00:03:10;;;;;;;4.97;2.95;;;17.70;90.70;;;;;;4880128;29;20039;-76
2023/10/29 00:05:36;;;;;;;5.45;3.10;;;17.70;90.70;;;;;;4877581;29;20458;-76
2023/10/29 00:08:02;;;;;;;7.32;3.35;;;17.70;90.80;;;;;;4879758;29;20037;-76
2023/10/29 00:10:29;;;;;;;8.20;3.35;;;17.70;90.80;;;;;;4879566;29;20056;-75
2023/10/29 00:12:55;;;;;;;6.00;2.80;;;17.70;90.80;;;;;;4876279;29;20108;-76
2023/10/29 00:15:20;;;;;;;6.63;3.08;;;17.60;90.90;;;;;;4880126;29;20466;-75
2023/10/29 00:17:46;;;;;;;10.73;3.85;;;17.60;90.90;;;;;;4880166;29;20434;-75
2023/10/29 00:20:12;;;;;;;8.88;3.83;;;17.60;90.90;;;;;;4875053;29;20039;-75
2023/10/29 00:22:38;;;;;;;10.57;3.88;;;17.60;91.10;;;;;;4879326;29;20032;-75
2023/10/29 00:25:04;;;;;;;6.65;3.10;;;17.60;91.20;;;;;;4879609;29;20044;-75
2023/10/29 00:27:30;;;;;;;6.85;3.15;;;17.60;91.20;;;;;;4876915;29;20028;-75
2023/10/29 00:29:56;;;;;;;7.43;3.75;;;17.60;91.20;;;;;;4879350;29;20088;-75
2023/10/29 00:32:21;;;;;;;6.47;3.20;;;17.60;91.10;;;;;;4879152;29;20017;-74
2023/10/29 00:34:48;;;;;;;9.55;3.67;;;17.50;91.10;;;;;;4876411;29;20060;-75
2023/10/29 00:37:17;;;;;;;8.80;3.70;;;17.50;91.30;;;;;;4879509;29;20021;-75
2023/10/29 00:39:43;;;;;;;7.30;3.20;;;17.50;91.30;;;;;;4860158;29;20060;-75
2023/10/29 00:42:10;;;;;;;7.80;3.53;;;17.50;91.30;;;;;;4878361;29;20040;-75
2023/10/29 00:44:36;;;;;;;6.65;3.15;;;17.40;91.20;;;;;;4862284;29;20033;-75
2023/10/29 00:47:02;;;;;;;8.60;4.68;;;17.40;91.30;;;;;;4875852;29;20418;-75
2023/10/29 00:49:28;;;;;;;9.10;3.83;;;17.40;91.40;;;;;;4879012;29;21105;-75
2023/10/29 00:51:54;;;;;;;12.63;4.07;;;17.30;91.40;;;;;;4879225;29;20120;-75
2023/10/29 00:54:20;;;;;;;7.10;3.60;;;17.30;91.50;;;;;;4876811;29;20389;-75
2023/10/29 00:56:46;;;;;;;6.15;3.63;;;17.30;91.60;;;;;;4878873;29;20041;-75
2023/10/29 00:59:12;;;;;;;9.63;4.32;;;17.20;91.60;;;;;;4878724;29;20037;-75
2023/10/29 01:01:38;;;;;;;9.25;4.28;;;17.20;91.70;;;;;;4877568;29;20033;-75
2023/10/29 01:04:04;;;;;;;7.22;3.78;;;17.20;91.80;;;;;;4877954;29;20060;-75
2023/10/29 01:06:38;;;;;;;10.93;3.78;;;17.10;91.90;;;;;;4878034;29;20493;-76
2023/10/29 01:09:07;;;;;;;7.25;4.13;;;17.00;91.90;;;;;;4876151;29;20035;-76
2023/10/29 01:11:32;;;;;;;5.60;3.33;;;17.00;92.00;;;;;;4878967;29;20081;-76
2023/10/29 01:13:58;;;;;;;7.65;4.35;;;16.90;92.10;;;;;;4878658;29;20033;-76
2023/10/29 01:16:24;;;;;;;7.90;4.18;;;17.00;92.20;;;;;;4876750;29;20124;-76
2023/10/29 01:18:50;;;;;;;8.88;4.65;;;16.90;92.20;;;;;;4878516;29;20418;-76
2023/10/29 01:21:16;;;;;;;8.90;4.28;;;16.90;92.30;;;;;;4877321;29;20033;-75
2023/10/29 01:23:42;;;;;;;8.95;4.82;;;16.80;92.40;;;;;;4877432;29;20043;-76
2023/10/29 01:26:08;;;;;;;11.07;5.00;;;16.80;92.50;;;;;;4878333;29;20041;-75
2023/10/29 01:28:33;;;;;;;10.18;4.80;;;16.90;92.60;;;;;;4878920;29;20108;-77
2023/10/29 01:31:00;;;;;;;9.13;4.03;;;16.90;92.70;;;;;;4875308;29;20458;-76
2023/10/29 01:33:26;;;;;;;8.43;4.43;;;16.90;92.70;;;;;;4878638;29;20017;-76
2023/10/29 01:35:52;;;;;;;6.38;4.18;;;16.90;92.70;;;;;;4876308;29;20120;-76
2023/10/29 01:38:17;;;;;;;7.50;4.30;;;16.90;92.80;;;;;;4878510;29;20124;-75
2023/10/29 01:40:43;;;;;;;8.73;5.07;;;16.90;92.80;;;;;;4876655;29;20041;-75
2023/10/29 01:43:09;;;;;;;8.27;5.38;;;16.90;92.80;;;;;;4878910;29;20124;-76
2023/10/29 01:45:37;;;;;;;11.18;4.95;;;16.90;92.80;;;;;;4862164;29;20490;-76
2023/10/29 01:48:03;;;;;;;6.82;4.63;;;16.90;92.80;;;;;;4876470;29;20029;-76
2023/10/29 01:50:29;;;;;;;9.55;5.38;;;16.90;92.90;;;;;;4876313;29;20144;-75
2023/10/29 01:52:57;;;;;;;8.73;4.80;;;16.90;92.90;;;;;;4862004;29;20036;-76
2023/10/29 01:55:22;;;;;;;7.03;4.53;;;16.90;93.00;;;;;;4879077;29;20040;-76
2023/10/29 01:57:48;;;;;;;7.10;4.70;;;16.90;93.00;;;;;;4859490;29;20032;-76
2023/10/29 02:00:14;;;;;;;10.48;5.15;;;16.90;93.00;;;;;;4877203;29;20037;-75
2023/10/29 02:02:40;;;;;;;6.70;4.60;;;16.90;93.00;;;;;;4881679;29;20430;-75
2023/10/29 02:05:06;;;;;;;9.07;5.55;;;16.90;93.00;;;;;;4879458;29;20037;-75
2023/10/29 02:07:32;;;;;;;9.55;5.55;;;16.90;93.10;;;;;;4882358;29;20033;-75
2023/10/29 02:09:57;;;;;;;9.35;5.85;;;16.90;93.10;;;;;;4881790;29;20359;-76
2023/10/29 02:12:23;;;;;;;10.93;6.03;;;17.00;93.20;;;;;;4873548;29;21255;-76
2023/10/29 02:14:49;;;;;;;10.95;6.28;;;16.90;93.20;;;;;;4881643;29;20071;-76
2023/10/29 02:17:14;;;;;;;9.68;6.05;;;16.90;93.20;;;;;;4881853;29;20021;-75
2023/10/29 02:19:40;;;;;;;10.55;6.85;;;16.90;93.30;;;;;;4879205;29;20401;-75
2023/10/29 02:22:06;;;;;;;10.27;5.55;;;16.90;93.30;;;;;;4880874;29;20039;-75
2023/10/29 02:24:31;;;;;;;12.50;6.55;;;16.90;93.30;;;;;;4880529;29;20093;-75
2023/10/29 02:26:57;;;;;;;9.70;5.82;;;16.90;93.40;;;;;;4881443;29;20044;-75
2023/10/29 02:29:23;;;;;;;10.70;5.47;;;16.90;93.40;;;;;;4864070;29;20036;-75
2023/10/29 02:31:48;;;;;;;7.72;5.50;;;16.90;93.50;;;;;;4880561;29;20029;-75
2023/10/29 02:34:14;;;;;;;10.05;5.25;;;16.90;93.60;;;;;;4878235;29;20037;-75
2023/10/29 02:36:40;;;;;;;10.93;5.68;;;16.90;93.60;;;;;;4881487;29;20028;-75
2023/10/29 02:39:06;;;;;;;9.10;6.07;;;16.90;93.70;;;;;;4878290;29;20076;-76
2023/10/29 02:41:32;;;;;;;10.80;5.50;;;16.90;93.70;;;;;;4881252;29;20529;-75
2023/10/29 02:43:58;;;;;;;11.23;5.45;;;16.90;93.80;;;;;;4864313;29;20123;-76
2023/10/29 02:46:24;;;;;;;11.00;6.38;;;16.90;93.80;;;;;;4881219;29;20033;-75
2023/10/29 02:48:50;;;;;;;15.25;7.57;;;16.90;93.80;;;;;;4876152;29;21088;-76
2023/10/29 02:51:16;;;;;;;10.45;5.88;;;16.90;93.80;;;;;;4881373;29;20041;-76
2023/10/29 02:53:42;;;;;;;10.13;6.15;;;16.90;93.80;;;;;;4881579;29;20120;-75
2023/10/29 02:56:08;;;;;;;10.13;5.85;;;16.90;93.90;;;;;;4880872;29;20033;-76
2023/10/29 02:58:35;;;;;;;10.23;6.10;;;16.80;93.90;;;;;;4879133;29;20065;-75
2023/10/29 03:01:08;;;;;;;10.80;5.72;;;16.80;94.00;;;;;;4875235;29;20033;-75
2023/10/29 03:03:35;;;;;;;7.80;5.68;;;16.80;94.00;;;;;;4879578;29;20036;-75
2023/10/29 03:06:08;;;;;;;11.35;5.32;;;16.80;94.00;;;;;;4879489;29;20101;-75
2023/10/29 03:08:35;;;;;;;9.25;5.22;;;16.80;94.00;;;;;;4885579;29;20466;-75
2023/10/29 03:11:02;;;;;;;19.85;5.90;;;16.90;94.10;;;;;;4877289;29;20032;-75
2023/10/29 03:13:28;;;;;;;10.27;5.97;;;16.90;94.10;;;;;;4883503;29;20057;-75
2023/10/29 03:15:55;;;;;;;10.88;5.57;;;16.90;94.10;;;;;;4880397;29;20044;-75
2023/10/29 03:18:21;;;;;;;12.38;5.55;;;16.90;94.10;;;;;;4880799;29;20041;-75
2023/10/29 03:20:47;;;;;;;8.98;5.45;;;16.90;94.10;;;;;;4857420;29;20074;-75
2023/10/29 03:23:12;;;;;;;9.40;5.65;;;16.90;94.10;;;;;;4871919;29;20064;-75
2023/10/29 03:25:38;;;;;;;9.77;5.22;;;16.90;94.10;;;;;;4863765;29;20053;-75
2023/10/29 03:28:04;;;;;;;10.73;5.50;;;16.90;94.10;;;;;;4879027;29;20033;-75
2023/10/29 03:30:30;;;;;;;11.57;6.25;;;16.90;94.10;;;;;;4880298;29;20036;-75
2023/10/29 03:32:55;;;;;;;11.00;5.93;;;16.90;94.10;;;;;;4876796;29;20435;-75
2023/10/29 03:35:21;;;;;;;11.43;6.22;;;16.90;94.10;;;;;;4864152;29;20033;-75
2023/10/29 03:37:47;;;;;;;10.80;5.93;;;16.90;94.20;;;;;;4880354;29;20045;-75
2023/10/29 03:40:12;;;;;;;9.50;6.10;;;17.00;94.20;;;;;;4880154;29;20186;-75
2023/10/29 03:42:38;;;;;;;10.13;5.45;;;16.90;94.10;;;;;;4880360;29;20107;-76
2023/10/29 03:45:04;;;;;;;10.93;5.90;;;16.90;94.30;;;;;;4876531;29;20056;-75
2023/10/29 03:47:30;;;;;;;9.35;5.68;;;16.90;94.10;;;;;;4879862;29;20044;-76
2023/10/29 03:49:56;;;;;;;9.52;5.47;;;16.90;94.20;;;;;;4880161;29;20033;-76
2023/10/29 03:52:22;;;;;;;9.90;5.22;;;16.80;94.20;;;;;;4880143;29;20037;-76
2023/10/29 03:54:48;;;;;;;9.52;5.28;;;16.80;94.30;;;;;;4878919;29;20045;-76
2023/10/29 03:57:14;;;;;;;7.18;4.82;;;16.80;94.20;;;;;;4879455;29;20039;-76
2023/10/29 03:59:40;;;;;;;6.38;5.00;;;16.70;94.30;;;;;;4879927;29;20025;-76
2023/10/29 04:02:06;;;;;;;11.52;5.53;;;16.70;94.30;;;;;;4879831;29;20127;-76
2023/10/29 04:04:35;;;;;;;15.63;5.32;;;16.70;94.40;;;;;;4880221;29;20032;-76
2023/10/29 04:07:02;;;;;;;6.30;4.87;;;16.70;94.40;;;;;;4871712;29;20095;-76
2023/10/29 04:09:28;;;;;;;11.27;5.90;;;16.70;94.60;;;;;;4879656;29;20108;-76
2023/10/29 04:11:54;;;;;;;7.03;5.13;;;16.70;94.40;;;;;;4862838;29;20116;-76
2023/10/29 04:14:20;;;;;;;8.63;4.97;;;16.70;94.40;;;;;;4879708;29;20064;-76
2023/10/29 04:16:45;;;;;;;9.27;4.97;;;16.70;94.40;;;;;;4885099;29;20048;-76
2023/10/29 04:19:11;;;;;;;9.23;5.10;;;16.70;94.40;;;;;;4877975;29;20085;-75
2023/10/29 04:21:37;;;;;;;8.27;5.05;;;16.70;94.50;;;;;;4879226;29;20029;-75
2023/10/29 04:24:03;;;;;;;9.35;4.90;;;16.70;94.50;;;;;;4879354;29;20052;-75
2023/10/29 04:26:29;;;;;;;11.63;5.55;;;16.70;94.50;;;;;;4881020;29;20029;-75
2023/10/29 04:28:54;;;;;;;12.00;5.63;;;16.70;94.50;;;;;;4879666;29;20063;-75
2023/10/29 04:31:20;;;;;;;8.63;4.70;;;16.70;94.50;;;;;;4873365;29;20036;-76
2023/10/29 04:33:48;;;;;;;7.78;5.15;;;16.60;94.50;;;;;;4862889;29;20033;-76
2023/10/29 04:36:24;;;;;;;5.78;4.20;;;16.60;94.60;;;;;;4879667;29;20033;-75
2023/10/29 04:38:50;;;;;;;9.50;4.43;;;16.60;94.60;;;;;;4888182;29;20128;-75
2023/10/29 04:41:16;;;;;;;8.75;5.07;;;16.60;94.60;;;;;;4878772;29;20073;-75
2023/10/29 04:43:41;;;;;;;11.18;4.38;;;16.50;94.70;;;;;;4861334;29;20036;-74
2023/10/29 04:46:10;;;;;;;8.57;4.60;;;16.60;94.80;;;;;;4871764;29;20039;-74
2023/10/29 04:48:37;;;;;;;10.52;4.90;;;16.60;94.80;;;;;;4877344;29;20025;-74
2023/10/29 04:51:06;;;;;;;10.07;6.05;;;16.60;94.80;;;;;;4885937;29;20029;-75
2023/10/29 04:53:32;;;;;;;8.40;5.32;;;16.60;94.80;;;;;;4884167;29;20116;-75
2023/10/29 04:55:57;;;;;;;9.95;5.60;;;16.60;94.70;;;;;;4886134;29;20068;-74
2023/10/29 04:58:23;;;;;;;11.13;5.47;;;16.60;94.70;;;;;;4887868;29;20132;-74
2023/10/29 05:00:49;;;;;;;10.32;5.65;;;16.60;94.60;;;;;;4886727;29;20076;-74
2023/10/29 05:03:15;;;;;;;10.50;5.63;;;16.60;94.60;;;;;;4881099;29;20072;-75
2023/10/29 05:05:41;;;;;;;9.85;5.32;;;16.60;94.70;;;;;;4879918;29;20044;-75
2023/10/29 05:08:06;;;;;;;8.20;5.20;;;16.60;94.70;;;;;;4879715;29;20041;-75
2023/10/29 05:10:32;;;;;;;7.35;5.07;;;16.60;94.80;;;;;;4873024;29;20025;-75
2023/10/29 05:12:58;;;;;;;10.25;6.70;;;16.60;94.80;;;;;;4880300;29;20029;-75
2023/10/29 05:15:24;;;;;;;11.30;5.43;;;16.60;94.80;;;;;;4883695;29;20088;-73
2023/10/29 05:17:50;;;;;;;10.05;4.55;;;16.40;94.90;;;;;;4890089;29;20033;-76
2023/10/29 05:20:16;;;;;;;8.77;4.93;;;16.40;95.20;;;;;;4890680;29;20405;-74
2023/10/29 05:22:42;;;;;;;11.32;5.10;;;16.40;95.00;;;;;;4880330;29;20025;-74
2023/10/29 05:25:08;;;;;;;8.68;4.97;;;16.30;95.10;;;;;;4889121;29;20730;-74
2023/10/29 05:27:34;;;;;;;11.25;5.70;;;16.30;95.20;;;;;;4897296;29;20115;-73
2023/10/29 05:30:00;;;;;;;9.88;4.95;;;16.40;95.20;;;;;;4878474;29;20058;-73
2023/10/29 05:32:26;;;;;;;9.40;5.15;;;16.40;95.20;;;;;;4880086;29;20037;-74
2023/10/29 05:34:52;;;;;;;6.25;4.15;;;16.30;95.20;;;;;;4880971;29;20025;-74
2023/10/29 05:37:18;;;;;;;9.60;4.78;;;16.30;95.30;;;;;;4893269;29;20120;-74
2023/10/29 05:39:43;;;;;;;13.43;5.03;;;16.30;95.30;;;;;;4891734;29;20053;-75
2023/10/29 05:42:10;;;;;;;8.93;5.57;;;16.30;95.40;;;;;;4881984;29;20600;-75
2023/10/29 05:44:35;;;;;;;8.07;4.47;;;16.20;95.30;;;;;;4888338;29;20036;-74
2023/10/29 05:47:01;;;;;;;7.63;4.47;;;16.20;95.30;;;;;;4879536;29;20339;-75
2023/10/29 05:49:27;;;;;;;8.27;4.88;;;16.20;95.40;;;;;;4882593;29;20033;-74
2023/10/29 05:51:53;;;;;;;8.60;4.72;;;16.10;95.50;;;;;;4882627;29;20568;-76
2023/10/29 05:54:18;;;;;;;8.10;4.55;;;16.10;95.50;;;;;;4881642;29;20057;-76
2023/10/29 05:56:45;;;;;;;8.70;4.45;;;16.10;95.60;;;;;;4881652;29;20125;-75
2023/10/29 05:59:12;;;;;;;8.50;4.72;;;16.10;95.70;;;;;;4880442;29;20458;-74
2023/10/29 06:01:38;;;;;;;8.30;4.40;;;16.00;95.80;;;;;;4864657;29;20140;-75
2023/10/29 06:04:05;;;;;;;11.55;5.60;;;16.10;95.80;;;;;;4862717;29;20434;-75
2023/10/29 06:06:30;;;;;;;8.30;4.15;;;16.10;95.80;;;;;;4882237;29;20033;-74
2023/10/29 06:08:56;;;;;;;9.38;5.05;;;16.10;95.80;;;;;;4890374;29;20083;-75
2023/10/29 06:11:22;;;;;;;9.32;4.70;;;16.10;95.90;;;;;;4881006;29;20393;-75
2023/10/29 06:13:47;;;;;;;6.72;4.03;;;16.00;95.90;;;;;;4880700;29;20538;-75
2023/10/29 06:16:14;;;;;;;11.02;4.85;;;16.10;95.90;;;;;;4882186;29;20414;-74
2023/10/29 06:18:39;;;;;;;7.45;3.83;;;16.00;95.80;;;;;;4863834;29;20085;-74
2023/10/29 06:21:05;;;;;;;9.07;4.38;;;16.00;95.80;;;;;;4875357;29;20049;-74
2023/10/29 06:23:31;;;;;;;9.45;3.65;;;16.10;95.90;;;;;;4879740;29;20175;-75
2023/10/29 06:25:57;;;;;;;6.05;3.60;;;16.20;95.80;;;;;;4863084;29;20151;-74
2023/10/29 06:28:22;;;;;;;10.73;3.60;;;16.20;95.70;;;;;;4880715;29;20037;-75
2023/10/29 06:30:48;;;;;;;8.77;3.45;;;16.20;95.60;;;;;;4880211;29;20052;-75
2023/10/29 06:33:13;;;;;;;7.28;3.13;;;16.20;95.60;;;;;;4879379;29;20085;-74
2023/10/29 06:35:40;;;;;;;6.88;3.10;;;16.20;95.50;;;;;;4874262;29;20065;-74
2023/10/29 06:38:06;;;;;;;6.55;3.80;;;16.20;95.40;;;;;;4896799;29;20053;-74
2023/10/29 06:40:32;;;;;;;9.07;3.65;;;16.20;95.40;;;;;;4894745;29;20037;-74
2023/10/29 06:42:57;;;;;;;5.00;3.25;;;16.30;95.40;;;;;;4880964;29;20041;-74
2023/10/29 06:45:23;;;;;;;5.28;3.33;;;16.20;95.40;;;;;;4880425;29;20044;-74
2023/10/29 06:47:49;;;;;;;7.00;3.25;;;16.20;95.40;;;;;;4878830;29;20025;-74
2023/10/29 06:50:15;;;;;;;4.97;3.08;;;16.20;95.40;;;;;;4881132;29;20029;-74
2023/10/29 06:52:41;;;;;;;7.30;2.72;;;16.30;95.40;;;;;;4880601;29;20032;-74
2023/10/29 06:55:08;;;;;;;10.15;3.28;;;16.40;95.40;;;;;;4880122;29;20120;-74
2023/10/29 06:57:35;;;;;;;8.50;4.55;;;16.40;95.40;;;;;;4883127;29;20025;-74
2023/10/29 07:00:01;;;;;;;11.00;3.05;;;16.40;95.40;;;;;;4862195;29;20040;-74
2023/10/29 07:02:27;;;;;;;10.27;3.78;;;16.30;95.50;;;;;;4877918;29;20033;-74
2023/10/29 07:04:53;;;;;;;8.40;4.15;;;16.40;95.50;;;;;;4874198;29;20021;-74
2023/10/29 07:07:18;;;;;;;7.25;2.83;;;16.30;95.60;;;;;;4879260;29;20033;-74
2023/10/29 07:09:44;;;;;;;8.25;4.00;;;16.30;95.60;;;;;;4879367;29;20037;-78
2023/10/29 07:12:10;;;;;;;9.48;3.60;;;16.30;95.70;;;;;;4880102;29;20028;-74
2023/10/29 07:14:35;;;;;;;10.05;4.32;;;16.30;95.70;;;;;;4879208;29;20033;-74
2023/10/29 07:17:01;;;;;;;8.95;3.30;;;16.20;95.80;;;;;;4879943;29;20036;-74
2023/10/29 07:19:27;;;;;;;4.55;2.08;;;16.20;95.90;;;;;;4878728;29;20152;-74
2023/10/29 07:21:52;;;;;;;6.22;2.45;;;16.30;95.80;;;;;;4880070;29;20036;-81
2023/10/29 07:24:18;;;;;;;4.78;2.30;;;16.40;95.80;;;;;;4879433;29;20040;-76
2023/10/29 07:26:44;;;;;;;5.72;2.65;;;16.50;95.80;;;;;;4878515;29;20458;-76
2023/10/29 07:29:11;;;;;;;11.05;2.88;;;16.60;95.60;;;;;;4861588;29;20396;-80
2023/10/29 07:31:37;;;;;;;6.30;2.45;;;16.80;95.40;;;;;;4879908;29;20052;-85
2023/10/29 07:34:03;;;;;;;4.75;2.42;;;16.90;95.30;;;;;;4874620;29;20064;-76
2023/10/29 07:36:29;;;;;;;9.57;2.33;;;17.00;95.20;;;;;;4874999;29;20478;-75
2023/10/29 07:38:55;;;;;;;6.43;2.75;;;17.10;95.10;;;;;;4875755;29;20123;-75
2023/10/29 07:41:21;;;;;;;4.65;2.20;;;17.20;95.00;;;;;;4881344;29;20029;-75
2023/10/29 07:43:47;;;;;;;6.53;2.40;;;17.30;94.90;;;;;;4879620;29;20037;-75
2023/10/29 07:46:14;;;;;;;5.93;2.45;;;17.40;94.80;;;;;;4879919;29;20041;-75
2023/10/29 07:48:40;;;;;;;7.68;2.35;;;17.40;94.60;;;;;;4880533;29;20427;-76
2023/10/29 07:51:05;;;;;;;8.75;2.72;;;17.40;94.50;;;;;;4880280;29;20041;-76
2023/10/29 07:53:31;;;;;;;6.90;2.38;;;17.40;94.50;;;;;;4879151;29;20036;-76
2023/10/29 07:56:08;;;;;;;5.32;2.15;;;17.50;94.60;;;;;;4879330;29;20032;-75
2023/10/29 07:58:34;;;;;;;8.45;2.67;;;17.50;94.50;;;;;;4881879;29;20362;-75
2023/10/29 08:01:00;;;;;;;6.85;2.55;;;17.50;94.40;;;;;;4888669;29;20104;-75
2023/10/29 08:03:26;;;;;;;7.60;2.17;;;17.50;94.30;;;;;;4880088;29;20052;-75
2023/10/29 08:05:52;;;;;;;12.68;2.78;;;17.60;94.60;;;;;;4881487;29;20466;-75
2023/10/29 08:08:18;;;;;;;5.25;2.33;;;17.60;94.30;;;;;;4879308;29;20338;-75
2023/10/29 08:10:44;;;;;;;5.68;2.30;;;17.70;94.40;;;;;;4880417;29;20029;-75
2023/10/29 08:13:10;;;;;;;7.22;3.00;;;17.70;94.40;;;;;;4879417;29;20028;-75
2023/10/29 08:15:39;;;;;;;6.47;2.50;;;17.70;94.30;;;;;;4878967;29;20125;-76
2023/10/29 08:18:05;;;;;;;5.38;2.15;;;17.80;94.30;;;;;;4879681;29;20055;-75
2023/10/29 08:20:31;;;;;;;6.90;2.50;;;17.80;94.30;;;;;;4878810;29;20494;-76
2023/10/29 08:22:57;;;;;;;5.18;2.15;;;17.80;94.30;;;;;;4885534;29;20041;-75
2023/10/29 08:25:22;;;;;;;6.80;2.30;;;17.80;94.30;;;;;;4879335;29;20041;-75
2023/10/29 08:27:48;;;;;;;4.43;2.00;;;17.90;94.30;;;;;;4876972;29;20029;-75
2023/10/29 08:30:14;;;;;;;5.78;2.40;;;17.90;94.20;;;;;;4876971;29;20081;-75
2023/10/29 08:32:40;;;;;;;4.22;1.80;;;17.90;94.20;;;;;;4878593;29;20037;-77
2023/10/29 08:35:08;;;;;;;5.75;2.03;;;18.00;94.30;;;;;;4881841;29;20040;-77
2023/10/29 08:37:34;;;;;;;4.63;2.45;;;18.00;94.30;;;;;;4872090;29;20060;-76
2023/10/29 08:40:00;;;;;;;4.88;1.98;;;18.00;94.30;;;;;;4877681;29;20080;-76
2023/10/29 08:42:30;;;;;;;5.18;1.90;;;18.10;94.20;;;;;;4865317;29;20031;-76
2023/10/29 08:44:59;;;;;;;4.90;1.98;;;18.10;94.20;;;;;;4875541;29;20029;-75
2023/10/29 08:47:29;;;;;;;4.13;2.43;;;18.20;94.20;;;;;;4871556;29;20040;-75
2023/10/29 08:49:55;;;;;;;4.57;1.80;;;18.40;94.00;;;;;;4874693;29;20112;-75
2023/10/29 08:52:20;;;;;;;5.15;1.95;;;18.60;93.90;;;;;;4878798;29;20435;-75
2023/10/29 08:54:47;;;;;;;3.85;1.85;;;18.60;93.60;;;;;;4879558;29;20025;-75
2023/10/29 08:57:13;;;;;;;3.42;1.83;;;18.70;93.50;;;;;;4875566;29;20084;-75
2023/10/29 08:59:39;;;;;;;8.88;2.63;;;18.70;93.40;;;;;;4860715;29;20491;-75
2023/10/29 09:02:05;;;;;;;5.45;2.05;;;18.70;93.30;;;;;;4877384;29;20063;-75
2023/10/29 09:04:36;;;;;;;8.43;2.42;;;18.70;93.30;;;;;;4878731;29;20068;-75
2023/10/29 09:07:02;;;;;;;6.53;2.17;;;18.70;93.30;;;;;;4878114;29;20605;-75
2023/10/29 09:09:28;;;;;;;4.00;1.73;;;18.70;93.30;;;;;;4876681;29;20116;-75
2023/10/29 09:11:54;;;;;;;6.00;1.83;;;18.70;93.30;;;;;;4870105;29;20463;-75
2023/10/29 09:14:20;;;;;;;10.25;2.40;;;18.70;93.40;;;;;;4868141;29;20033;-75
2023/10/29 09:16:49;;;;;;;4.35;1.77;;;18.70;93.40;;;;;;4873778;29;20041;-76
2023/10/29 09:19:15;;;;;;;6.78;2.85;;;18.60;93.50;;;;;;4874755;29;20041;-76
2023/10/29 09:21:41;;;;;;;4.97;2.58;;;18.50;93.60;;;;;;4875782;29;20065;-76
2023/10/29 09:24:07;;;;;;;4.65;2.08;;;18.50;93.70;;;;;;4878402;29;20505;-76
2023/10/29 09:26:33;;;;;;;3.45;1.83;;;18.50;93.90;;;;;;4875786;29;20431;-76
2023/10/29 09:29:02;;;;;;;6.10;2.70;;;18.50;94.20;;;;;;4869225;29;20033;-76
2023/10/29 09:31:28;;;;;;;6.20;2.45;;;18.50;94.30;;;;;;4871616;29;20033;-77
2023/10/29 09:33:55;;;;;;;12.68;3.25;;;18.50;94.40;;;;;;4854614;29;20089;-76
2023/10/29 09:36:23;;;;;;;9.30;3.03;;;18.40;94.70;;;;;;4869855;29;20053;-76
2023/10/29 09:38:49;;;;;;;8.23;2.88;;;18.40;94.50;;;;;;4870395;29;20048;-76
2023/10/29 09:41:18;;;;;;;5.00;2.15;;;18.30;94.60;;;;;;4872470;29;20100;-76
2023/10/29 09:43:44;;;;;;;3.77;2.37;;;18.30;94.60;;;;;;4878029;29;20466;-76
2023/10/29 09:46:11;;;;;;;7.40;2.30;;;18.40;94.70;;;;;;4878146;29;20063;-76
2023/10/29 09:48:37;;;;;;;7.45;2.45;;;18.40;94.70;;;;;;4878350;29;20037;-76
2023/10/29 09:51:06;;;;;;;5.10;1.80;;;18.40;94.80;;;;;;4867330;29;20031;-76
2023/10/29 09:53:34;;;;;;;6.07;2.30;;;18.40;94.70;;;;;;4873029;29;20471;-76
2023/10/29 09:56:00;;;;;;;5.30;1.77;;;18.40;94.70;;;;;;4877792;29;20056;-76
2023/10/29 09:58:27;;;;;;;5.15;2.15;;;18.40;94.70;;;;;;4878367;29;20486;-75
2023/10/29 10:00:53;;;;;;;3.33;2.08;;;18.30;94.70;;;;;;4867942;29;20666;-76
2023/10/29 10:03:20;;;;;;;9.55;2.17;;;18.40;94.90;;;;;;4893319;29;20373;-75
2023/10/29 10:05:47;;;;;;;6.70;2.85;;;18.40;94.70;;;;;;4877971;29;20052;-75
2023/10/29 10:08:13;;;;;;;6.63;3.03;;;18.40;94.60;;;;;;4878483;29;20037;-75
2023/10/29 10:10:43;;;;;;;4.97;1.92;;;18.40;94.70;;;;;;4882815;29;20044;-75
2023/10/29 10:13:10;;;;;;;4.80;2.20;;;18.40;94.80;;;;;;4888235;29;20040;-76
2023/10/29 10:15:37;;;;;;;5.80;2.25;;;18.40;94.80;;;;;;4888359;29;20111;-75
2023/10/29 10:18:04;;;;;;;5.47;2.30;;;18.30;94.80;;;;;;4897166;29;20036;-76
2023/10/29 10:20:31;;;;;;;9.43;2.38;;;18.40;94.90;;;;;;4890529;29;20489;-76
2023/10/29 10:23:11;;;;;;;5.90;2.00;;;18.40;95.10;;;;;;4872289;29;20089;-76
2023/10/29 10:25:37;;;;;;;5.00;2.13;;;18.40;95.10;;;;;;4880971;29;20398;-76
2023/10/29 10:28:04;;;;;;;4.82;2.10;;;18.50;95.10;;;;;;4881014;29;20037;-76
2023/10/29 10:30:31;;;;;;;5.53;2.00;;;18.60;95.10;;;;;;4881158;29;20033;-76
2023/10/29 10:33:10;;;;;;;8.73;1.90;;;18.70;94.90;;;;;;4864337;29;20454;-76
2023/10/29 10:35:54;;;;;;;4.68;1.70;;;18.70;94.80;;;;;;4881353;29;20501;-77
2023/10/29 10:38:20;;;;;;;11.25;1.95;;;18.70;94.70;;;;;;4878431;29;20056;-76
2023/10/29 10:40:47;;;;;;;6.30;2.58;;;18.60;94.60;;;;;;4872018;29;20037;-76
2023/10/29 10:43:19;;;;;;;3.67;1.65;;;18.60;94.60;;;;;;4876833;29;20433;-77
2023/10/29 10:45:50;;;;;;;3.67;1.58;;;18.60;94.70;;;;;;4880148;29;20036;-76
2023/10/29 10:48:16;;;;;;;8.57;2.13;;;18.60;94.80;;;;;;4884252;29;20032;-76
2023/10/29 10:50:43;;;;;;;4.63;2.05;;;18.60;94.70;;;;;;4887569;29;20024;-76
2023/10/29 10:53:12;;;;;;;3.25;1.60;;;18.60;94.70;;;;;;4880683;29;20061;-76
2023/10/29 10:55:39;;;;;;;8.40;2.53;;;18.70;94.70;;;;;;4880229;29;20071;-76
2023/10/29 10:58:06;;;;;;;11.52;2.60;;;18.70;94.90;;;;;;4878003;29;20040;-76
2023/10/29 11:00:34;;;;;;;8.38;2.35;;;18.70;94.50;;;;;;4870819;29;20040;-76
2023/10/29 11:03:02;;;;;;;5.00;1.83;;;18.70;94.60;;;;;;4886386;29;20088;-76
2023/10/29 11:05:30;;;;;;;7.97;3.15;;;18.70;94.50;;;;;;4878906;29;20037;-76
2023/10/29 11:07:58;;;;;;;8.65;2.13;;;18.70;94.30;;;;;;4873510;29;20052;-76
2023/10/29 11:10:25;;;;;;;4.32;1.90;;;18.60;94.40;;;;;;4878980;29;20850;-76
2023/10/29 11:12:51;;;;;;;5.28;2.28;;;18.70;94.50;;;;;;4899140;29;20035;-76
2023/10/29 11:15:19;;;;;;;5.70;2.03;;;18.70;94.50;;;;;;4869096;29;20073;-75
2023/10/29 11:18:01;;;;;;;4.53;1.90;;;18.70;94.50;;;;;;4880488;29;20048;-76
2023/10/29 11:20:57;;;;;;;5.05;1.95;;;18.80;94.40;;;;;;4883485;29;20073;-76
2023/10/29 11:23:27;;;;;;;5.60;1.98;;;18.80;94.30;;;;;;4878939;29;20053;-76
2023/10/29 11:26:23;;;;;;;5.28;2.03;;;18.80;94.30;;;;;;4879396;29;20029;-76
2023/10/29 11:28:53;;;;;;;4.28;1.88;;;18.80;94.40;;;;;;4878996;29;20112;-76
2023/10/29 11:31:21;;;;;;;3.60;1.80;;;18.70;94.40;;;;;;4879063;29;20088;-76
2023/10/29 11:33:55;;;;;;;6.85;2.72;;;18.70;94.50;;;;;;4877744;29;20116;-76
2023/10/29 11:36:39;;;;;;;5.63;2.53;;;18.80;94.50;;;;;;4874654;29;20029;-76
2023/10/29 11:39:18;;;;;;;6.70;2.35;;;18.80;94.50;;;;;;4879536;29;20053;-76
2023/10/29 11:41:45;;;;;;;10.10;2.65;;;18.90;94.30;;;;;;4879375;29;20059;-76
2023/10/29 11:44:23;;;;;;;7.25;2.58;;;18.90;94.20;;;;;;4878052;29;20065;-76
2023/10/29 11:46:58;;;;;;;7.65;2.38;;;18.90;94.30;;;;;;4880726;29;20033;-76
2023/10/29 11:49:26;;;;;;;4.95;2.10;;;18.80;94.30;;;;;;4882458;29;20061;-76
2023/10/29 11:51:56;;;;;;;6.50;2.53;;;18.80;94.30;;;;;;4874059;29;20034;-76
2023/10/29 11:54:23;;;;;;;5.20;2.08;;;18.70;94.30;;;;;;4874471;29;20049;-76
2023/10/29 11:56:50;;;;;;;6.15;2.03;;;18.70;94.40;;;;;;4879781;29;20060;-76
2023/10/29 11:59:16;;;;;;;9.32;1.98;;;18.80;94.50;;;;;;4881549;29;20112;-76
2023/10/29 12:01:42;;;;;;;4.22;2.10;;;18.90;94.50;;;;;;4879994;29;20104;-76
2023/10/29 12:04:14;;;;;;;4.43;1.88;;;18.90;94.50;;;;;;4878005;29;20056;-76
2023/10/29 12:06:44;;;;;;;5.93;2.15;;;19.00;94.50;;;;;;4879950;29;20044;-77
2023/10/29 12:09:13;;;;;;;;;;;19.00;94.40;;;;;;4877567;29;20030;-76
2023/10/29 12:11:39;;;;;;;8.38;2.67;;;19.00;94.30;;;;;;4880398;29;19912;-76
2023/10/29 12:14:05;;;;;;;7.45;2.30;;;19.00;94.20;;;;;;4880532;29;20369;-76
2023/10/29 12:16:31;;;;;;;5.30;2.17;;;19.00;94.30;;;;;;4888729;29;20084;-76
2023/10/29 12:18:57;;;;;;;3.90;1.70;;;19.00;94.20;;;;;;4888249;29;20025;-77
2023/10/29 12:21:22;;;;;;;8.35;2.50;;;19.00;94.30;;;;;;4885422;29;20036;-76
2023/10/29 12:23:49;;;;;;;6.18;1.92;;;18.90;94.30;;;;;;4888192;29;20435;-76
2023/10/29 12:26:15;;;;;;;3.97;1.77;;;19.00;94.10;;;;;;4881019;29;20033;-76
2023/10/29 12:28:42;;;;;;;5.18;1.90;;;19.00;94.20;;;;;;4878427;29;20029;-76
2023/10/29 12:31:24;;;;;;;2.92;1.70;;;19.00;94.20;;;;;;4879333;29;20101;-76
2023/10/29 12:34:00;;;;;;;4.00;1.85;;;19.10;94.10;;;;;;4880263;29;20352;-76
2023/10/29 12:36:26;;;;;;;6.57;2.30;;;19.20;94.00;;;;;;4879335;29;20093;-76
2023/10/29 12:38:53;;;;;;;5.70;2.03;;;19.30;93.90;;;;;;4877589;29;20532;-76
2023/10/29 12:41:27;;;;;;;6.43;2.60;;;19.30;93.90;;;;;;4861716;29;20389;-76
2023/10/29 12:43:53;;;;;;;5.07;2.65;;;19.40;94.00;;;;;;4870774;29;20085;-76